sensor_id;sensor_type;location;lat;lon;timestamp;P1;durP1;ratioP1;P2;durP2;ratioP2
69046;SDS011;57261;47.504;19.084;2022-11-20T05:59:42;39.85;;;18.38;;
69046;SDS011;57261;47.504;19.084;2022-11-20T06:02:42;38.93;;;17.33;;
69046;SDS011;57261;47.504;19.084;2022-11-20T06:05:44;34.60;;;16.58;;
69046;SDS011;57261;47.504;19.084;2022-11-20T06:08:44;34.37;;;17.63;;
69046;SDS011;57261;47.504;19.084;2022-11-20T06:11:45;34.10;;;16.80;;
69046;SDS011;57261;47.504;19.084;2022-11-20T06:14:45;35.10;;;16.60;;
69046;SDS011;57261;47.504;19.084;2022-11-20T06:17:46;35.93;;;16.60;;
69046;SDS011;57261;47.504;19.084;2022-11-20T06:20:49;31.97;;;15.83;;
69046;SDS011;57261;47.504;19.084;2022-11-20T06:23:58;36.22;;;16.98;;
69046;SDS011;57261;47.504;19.084;2022-11-20T06:26:58;33.30;;;16.37;;
69046;SDS011;57261;47.504;19.084;2022-11-20T06:29:59;34.33;;;16.67;;
69046;SDS011;57261;47.504;19.084;2022-11-20T06:32:59;32.37;;;16.30;;
69046;SDS011;57261;47.504;19.084;2022-11-20T06:36:00;32.77;;;16.53;;
69046;SDS011;57261;47.504;19.084;2022-11-20T06:39:01;33.38;;;16.85;;
69046;SDS011;57261;47.504;19.084;2022-11-20T06:42:02;31.63;;;15.17;;
69046;SDS011;57261;47.504;19.084;2022-11-20T06:45:02;33.65;;;15.77;;
69046;SDS011;57261;47.504;19.084;2022-11-20T06:48:03;33.80;;;16.00;;
69046;SDS011;57261;47.504;19.084;2022-11-20T06:51:04;32.33;;;15.73;;
69046;SDS011;57261;47.504;19.084;2022-11-20T06:54:07;31.50;;;15.82;;
69046;SDS011;57261;47.504;19.084;2022-11-20T06:57:07;30.73;;;15.17;;
69046;SDS011;57261;47.504;19.084;2022-11-20T07:00:08;31.70;;;15.23;;
69046;SDS011;57261;47.504;19.084;2022-11-20T07:03:09;32.60;;;14.82;;
69046;SDS011;57261;47.504;19.084;2022-11-20T07:06:10;29.55;;;14.70;;
69046;SDS011;57261;47.504;19.084;2022-11-20T07:09:14;32.25;;;15.82;;
69046;SDS011;57261;47.504;19.084;2022-11-20T07:12:14;29.73;;;14.93;;
69046;SDS011;57261;47.504;19.084;2022-11-20T07:15:15;28.17;;;14.27;;
69046;SDS011;57261;47.504;19.084;2022-11-20T07:18:15;31.30;;;15.07;;
69046;SDS011;57261;47.504;19.084;2022-11-20T07:21:15;27.90;;;14.70;;
69046;SDS011;57261;47.504;19.084;2022-11-20T07:24:16;31.63;;;15.20;;
69046;SDS011;57261;47.504;19.084;2022-11-20T07:27:16;31.10;;;15.10;;
69046;SDS011;57261;47.504;19.084;2022-11-20T07:30:17;31.15;;;14.85;;
69046;SDS011;57261;47.504;19.084;2022-11-20T07:33:17;31.77;;;14.57;;
69046;SDS011;57261;47.504;19.084;2022-11-20T07:36:18;33.22;;;15.05;;
69046;SDS011;57261;47.504;19.084;2022-11-20T07:39:19;28.93;;;14.47;;
69046;SDS011;57261;47.504;19.084;2022-11-20T07:42:19;30.53;;;15.30;;
69046;SDS011;57261;47.504;19.084;2022-11-20T07:45:20;30.53;;;14.53;;
69046;SDS011;57261;47.504;19.084;2022-11-20T07:48:22;30.63;;;14.80;;
69046;SDS011;57261;47.504;19.084;2022-11-20T07:51:23;28.95;;;14.80;;
69046;SDS011;57261;47.504;19.084;2022-11-20T07:54:23;28.33;;;14.55;;
69046;SDS011;57261;47.504;19.084;2022-11-20T07:57:24;28.03;;;13.93;;
69046;SDS011;57261;47.504;19.084;2022-11-20T08:00:25;30.77;;;14.93;;
69046;SDS011;57261;47.504;19.084;2022-11-20T08:03:26;31.38;;;14.82;;
69046;SDS011;57261;47.504;19.084;2022-11-20T08:06:26;29.83;;;14.40;;
69046;SDS011;57261;47.504;19.084;2022-11-20T08:09:28;30.67;;;15.77;;
69046;SDS011;57261;47.504;19.084;2022-11-20T08:12:28;28.13;;;14.40;;
69046;SDS011;57261;47.504;19.084;2022-11-20T08:15:48;28.20;;;14.63;;
69046;SDS011;57261;47.504;19.084;2022-11-20T08:18:53;26.92;;;13.82;;
69046;SDS011;57261;47.504;19.084;2022-11-20T08:21:54;29.55;;;15.15;;
69046;SDS011;57261;47.504;19.084;2022-11-20T08:24:55;29.20;;;14.10;;
69046;SDS011;57261;47.504;19.084;2022-11-20T08:28:02;29.00;;;13.93;;
69046;SDS011;57261;47.504;19.084;2022-11-20T08:31:06;30.60;;;14.50;;
69046;SDS011;57261;47.504;19.084;2022-11-20T08:34:06;29.37;;;15.27;;
69046;SDS011;57261;47.504;19.084;2022-11-20T08:37:06;32.27;;;16.17;;
69046;SDS011;57261;47.504;19.084;2022-11-20T08:40:10;30.40;;;14.82;;
69046;SDS011;57261;47.504;19.084;2022-11-20T08:43:11;29.13;;;14.63;;
69046;SDS011;57261;47.504;19.084;2022-11-20T08:46:11;33.53;;;16.60;;
69046;SDS011;57261;47.504;19.084;2022-11-20T08:49:12;31.90;;;15.63;;
69046;SDS011;57261;47.504;19.084;2022-11-20T08:52:14;33.65;;;15.77;;
69046;SDS011;57261;47.504;19.084;2022-11-20T08:55:15;31.53;;;15.43;;
69046;SDS011;57261;47.504;19.084;2022-11-20T08:58:17;32.17;;;17.10;;
69046;SDS011;57261;47.504;19.084;2022-11-20T09:01:21;32.38;;;16.17;;
69046;SDS011;57261;47.504;19.084;2022-11-20T09:04:23;34.43;;;16.90;;
69046;SDS011;57261;47.504;19.084;2022-11-20T09:07:23;29.57;;;16.37;;
69046;SDS011;57261;47.504;19.084;2022-11-20T09:10:24;33.70;;;16.98;;
69046;SDS011;57261;47.504;19.084;2022-11-20T09:13:25;33.63;;;17.00;;
69046;SDS011;57261;47.504;19.084;2022-11-20T09:16:27;32.13;;;17.40;;
69046;SDS011;57261;47.504;19.084;2022-11-20T09:19:36;31.85;;;16.77;;
69046;SDS011;57261;47.504;19.084;2022-11-20T09:22:39;35.05;;;17.30;;
69046;SDS011;57261;47.504;19.084;2022-11-20T09:25:40;34.00;;;17.40;;
69046;SDS011;57261;47.504;19.084;2022-11-20T09:28:40;35.13;;;17.73;;
69046;SDS011;57261;47.504;19.084;2022-11-20T09:31:41;36.40;;;18.87;;
69046;SDS011;57261;47.504;19.084;2022-11-20T09:34:41;33.70;;;17.63;;
69046;SDS011;57261;47.504;19.084;2022-11-20T09:37:41;33.70;;;16.90;;
69046;SDS011;57261;47.504;19.084;2022-11-20T09:40:46;35.60;;;18.37;;
69046;SDS011;57261;47.504;19.084;2022-11-20T09:47:30;38.27;;;18.53;;
69046;SDS011;57261;47.504;19.084;2022-11-20T09:50:41;39.63;;;19.13;;
69046;SDS011;57261;47.504;19.084;2022-11-20T09:57:11;33.80;;;17.93;;
69046;SDS011;57261;47.504;19.084;2022-11-20T10:00:17;35.38;;;17.70;;
69046;SDS011;57261;47.504;19.084;2022-11-20T10:03:24;33.60;;;17.65;;
69046;SDS011;57261;47.504;19.084;2022-11-20T10:06:41;33.92;;;18.13;;
69046;SDS011;57261;47.504;19.084;2022-11-20T10:09:43;34.78;;;18.02;;
69046;SDS011;57261;47.504;19.084;2022-11-20T10:19:39;34.33;;;18.27;;
69046;SDS011;57261;47.504;19.084;2022-11-20T10:22:48;32.67;;;17.00;;
69046;SDS011;57261;47.504;19.084;2022-11-20T10:26:52;32.00;;;16.13;;
69046;SDS011;57261;47.504;19.084;2022-11-20T10:29:42;33.23;;;17.87;;
69046;SDS011;57261;47.504;19.084;2022-11-20T10:32:50;34.65;;;17.05;;
69046;SDS011;57261;47.504;19.084;2022-11-20T10:48:56;31.63;;;17.00;;
69046;SDS011;57261;47.504;19.084;2022-11-20T11:02:54;32.33;;;16.95;;
69046;SDS011;57261;47.504;19.084;2022-11-20T11:05:56;33.15;;;17.40;;
69046;SDS011;57261;47.504;19.084;2022-11-20T11:09:16;29.20;;;16.30;;
69046;SDS011;57261;47.504;19.084;2022-11-20T11:12:25;29.90;;;16.65;;
69046;SDS011;57261;47.504;19.084;2022-11-20T11:15:36;30.23;;;16.55;;
69046;SDS011;57261;47.504;19.084;2022-11-20T11:18:40;32.93;;;17.77;;
69046;SDS011;57261;47.504;19.084;2022-11-20T11:21:47;31.48;;;16.60;;
69046;SDS011;57261;47.504;19.084;2022-11-20T11:24:52;29.20;;;16.00;;
69046;SDS011;57261;47.504;19.084;2022-11-20T11:27:54;31.55;;;17.20;;
69046;SDS011;57261;47.504;19.084;2022-11-20T11:30:57;30.65;;;16.20;;
69046;SDS011;57261;47.504;19.084;2022-11-20T11:34:08;29.75;;;16.23;;
69046;SDS011;57261;47.504;19.084;2022-11-20T11:37:15;30.13;;;15.80;;
69046;SDS011;57261;47.504;19.084;2022-11-20T11:40:19;30.50;;;16.50;;
69046;SDS011;57261;47.504;19.084;2022-11-20T11:43:22;29.60;;;15.52;;
69046;SDS011;57261;47.504;19.084;2022-11-20T11:46:53;28.53;;;15.37;;
69046;SDS011;57261;47.504;19.084;2022-11-20T11:50:08;30.80;;;16.38;;
69046;SDS011;57261;47.504;19.084;2022-11-20T11:53:19;29.70;;;16.38;;
69046;SDS011;57261;47.504;19.084;2022-11-20T11:56:21;30.48;;;16.30;;
69046;SDS011;57261;47.504;19.084;2022-11-20T11:59:25;30.92;;;16.85;;
69046;SDS011;57261;47.504;19.084;2022-11-20T12:02:34;29.42;;;15.55;;
69046;SDS011;57261;47.504;19.084;2022-11-20T12:05:43;30.38;;;16.55;;
69046;SDS011;57261;47.504;19.084;2022-11-20T12:08:49;30.30;;;16.43;;
69046;SDS011;57261;47.504;19.084;2022-11-20T12:12:02;28.73;;;15.75;;
69046;SDS011;57261;47.504;19.084;2022-11-20T12:15:22;30.20;;;16.25;;
69046;SDS011;57261;47.504;19.084;2022-11-20T12:18:26;31.42;;;15.88;;
69046;SDS011;57261;47.504;19.084;2022-11-20T12:24:59;30.05;;;15.50;;
69046;SDS011;57261;47.504;19.084;2022-11-20T12:28:15;30.67;;;16.33;;
69046;SDS011;57261;47.504;19.084;2022-11-20T12:38:09;31.38;;;15.55;;
69046;SDS011;57261;47.504;19.084;2022-11-20T12:45:22;29.73;;;15.80;;
69046;SDS011;57261;47.504;19.084;2022-11-20T12:54:46;32.83;;;17.23;;
69046;SDS011;57261;47.504;19.084;2022-11-20T12:57:51;33.33;;;17.55;;
69046;SDS011;57261;47.504;19.084;2022-11-20T13:01:09;33.28;;;18.08;;
69046;SDS011;57261;47.504;19.084;2022-11-20T13:18:31;32.45;;;16.88;;
69046;SDS011;57261;47.504;19.084;2022-11-20T13:21:39;32.10;;;17.05;;
69046;SDS011;57261;47.504;19.084;2022-11-20T13:24:49;33.43;;;16.80;;
69046;SDS011;57261;47.504;19.084;2022-11-20T13:27:51;32.78;;;16.60;;
69046;SDS011;57261;47.504;19.084;2022-11-20T13:30:53;33.72;;;17.75;;
69046;SDS011;57261;47.504;19.084;2022-11-20T13:33:55;31.88;;;17.33;;
69046;SDS011;57261;47.504;19.084;2022-11-20T13:36:58;31.52;;;17.20;;
69046;SDS011;57261;47.504;19.084;2022-11-20T13:43:19;33.13;;;17.40;;
69046;SDS011;57261;47.504;19.084;2022-11-20T13:46:35;33.13;;;17.70;;
69046;SDS011;57261;47.504;19.084;2022-11-20T13:49:38;32.00;;;17.20;;
69046;SDS011;57261;47.504;19.084;2022-11-20T13:56:19;32.78;;;17.13;;
69046;SDS011;57261;47.504;19.084;2022-11-20T13:59:37;33.80;;;17.07;;
69046;SDS011;57261;47.504;19.084;2022-11-20T14:03:02;32.60;;;17.80;;
69046;SDS011;57261;47.504;19.084;2022-11-20T14:06:26;32.22;;;16.73;;
69046;SDS011;57261;47.504;19.084;2022-11-20T14:09:32;34.23;;;17.37;;
69046;SDS011;57261;47.504;19.084;2022-11-20T14:12:34;32.50;;;16.70;;
69046;SDS011;57261;47.504;19.084;2022-11-20T14:15:34;33.23;;;17.10;;
69046;SDS011;57261;47.504;19.084;2022-11-20T14:18:35;32.22;;;16.58;;
69046;SDS011;57261;47.504;19.084;2022-11-20T14:21:35;34.42;;;17.25;;
69046;SDS011;57261;47.504;19.084;2022-11-20T14:24:35;33.97;;;16.90;;
69046;SDS011;57261;47.504;19.084;2022-11-20T14:27:36;34.27;;;17.43;;
69046;SDS011;57261;47.504;19.084;2022-11-20T14:30:42;32.50;;;17.70;;
69046;SDS011;57261;47.504;19.084;2022-11-20T14:33:44;32.97;;;17.45;;
69046;SDS011;57261;47.504;19.084;2022-11-20T14:36:45;33.90;;;17.52;;
69046;SDS011;57261;47.504;19.084;2022-11-20T14:39:50;30.93;;;16.10;;
69046;SDS011;57261;47.504;19.084;2022-11-20T14:42:53;34.15;;;18.00;;
69046;SDS011;57261;47.504;19.084;2022-11-20T14:45:55;33.67;;;18.10;;
69046;SDS011;57261;47.504;19.084;2022-11-20T14:49:00;34.43;;;17.80;;
69046;SDS011;57261;47.504;19.084;2022-11-20T14:52:19;31.40;;;16.33;;
69046;SDS011;57261;47.504;19.084;2022-11-20T14:55:31;33.40;;;16.75;;
69046;SDS011;57261;47.504;19.084;2022-11-20T14:58:34;35.97;;;17.92;;
69046;SDS011;57261;47.504;19.084;2022-11-20T15:01:34;34.30;;;17.45;;
69046;SDS011;57261;47.504;19.084;2022-11-20T15:04:48;34.77;;;17.67;;
69046;SDS011;57261;47.504;19.084;2022-11-20T15:07:52;32.88;;;16.80;;
69046;SDS011;57261;47.504;19.084;2022-11-20T15:11:16;35.22;;;17.10;;
69046;SDS011;57261;47.504;19.084;2022-11-20T15:14:19;33.67;;;16.87;;
69046;SDS011;57261;47.504;19.084;2022-11-20T15:17:20;34.33;;;18.17;;
69046;SDS011;57261;47.504;19.084;2022-11-20T15:20:20;34.47;;;16.67;;
69046;SDS011;57261;47.504;19.084;2022-11-20T15:23:27;31.05;;;16.58;;
69046;SDS011;57261;47.504;19.084;2022-11-20T15:26:29;31.13;;;15.75;;
69046;SDS011;57261;47.504;19.084;2022-11-20T15:29:29;33.55;;;17.30;;
69046;SDS011;57261;47.504;19.084;2022-11-20T15:32:29;33.87;;;17.63;;
69046;SDS011;57261;47.504;19.084;2022-11-20T15:35:30;35.30;;;17.80;;
69046;SDS011;57261;47.504;19.084;2022-11-20T15:38:30;33.20;;;17.10;;
69046;SDS011;57261;47.504;19.084;2022-11-20T15:41:31;34.63;;;17.70;;
69046;SDS011;57261;47.504;19.084;2022-11-20T15:44:31;34.83;;;17.52;;
69046;SDS011;57261;47.504;19.084;2022-11-20T15:47:32;31.90;;;17.50;;
69046;SDS011;57261;47.504;19.084;2022-11-20T15:50:36;34.37;;;17.70;;
69046;SDS011;57261;47.504;19.084;2022-11-20T15:53:39;34.70;;;17.48;;
69046;SDS011;57261;47.504;19.084;2022-11-20T15:56:41;35.22;;;17.52;;
69046;SDS011;57261;47.504;19.084;2022-11-20T15:59:42;34.00;;;17.13;;
69046;SDS011;57261;47.504;19.084;2022-11-20T16:02:42;34.40;;;17.43;;
69046;SDS011;57261;47.504;19.084;2022-11-20T16:05:43;33.13;;;16.97;;
69046;SDS011;57261;47.504;19.084;2022-11-20T16:08:43;32.08;;;16.35;;
69046;SDS011;57261;47.504;19.084;2022-11-20T16:11:47;35.97;;;17.63;;
69046;SDS011;57261;47.504;19.084;2022-11-20T16:14:47;32.33;;;16.93;;
69046;SDS011;57261;47.504;19.084;2022-11-20T16:18:07;30.80;;;16.30;;
69046;SDS011;57261;47.504;19.084;2022-11-20T16:21:10;33.58;;;16.92;;
69046;SDS011;57261;47.504;19.084;2022-11-20T16:24:15;32.33;;;17.02;;
69046;SDS011;57261;47.504;19.084;2022-11-20T16:27:15;34.95;;;17.35;;
69046;SDS011;57261;47.504;19.084;2022-11-20T16:30:16;32.07;;;16.23;;
69046;SDS011;57261;47.504;19.084;2022-11-20T16:33:19;36.03;;;18.70;;
69046;SDS011;57261;47.504;19.084;2022-11-20T16:36:20;34.72;;;16.27;;
69046;SDS011;57261;47.504;19.084;2022-11-20T16:39:22;36.57;;;17.93;;
69046;SDS011;57261;47.504;19.084;2022-11-20T16:42:24;35.58;;;18.23;;
69046;SDS011;57261;47.504;19.084;2022-11-20T16:45:26;34.97;;;17.43;;
69046;SDS011;57261;47.504;19.084;2022-11-20T16:48:27;35.28;;;17.65;;
69046;SDS011;57261;47.504;19.084;2022-11-20T16:51:28;38.13;;;19.13;;
69046;SDS011;57261;47.504;19.084;2022-11-20T16:54:30;39.95;;;19.38;;
69046;SDS011;57261;47.504;19.084;2022-11-20T16:57:30;37.30;;;19.10;;
69046;SDS011;57261;47.504;19.084;2022-11-20T17:00:37;38.75;;;19.27;;
69046;SDS011;57261;47.504;19.084;2022-11-20T17:03:41;39.93;;;20.27;;
69046;SDS011;57261;47.504;19.084;2022-11-20T17:06:42;37.10;;;19.63;;
69046;SDS011;57261;47.504;19.084;2022-11-20T17:09:43;39.47;;;19.95;;
69046;SDS011;57261;47.504;19.084;2022-11-20T17:12:44;38.63;;;19.43;;
69046;SDS011;57261;47.504;19.084;2022-11-20T17:15:44;39.13;;;19.83;;
69046;SDS011;57261;47.504;19.084;2022-11-20T17:18:44;39.67;;;19.60;;
69046;SDS011;57261;47.504;19.084;2022-11-20T17:21:45;38.97;;;20.13;;
69046;SDS011;57261;47.504;19.084;2022-11-20T17:24:45;41.63;;;20.55;;
69046;SDS011;57261;47.504;19.084;2022-11-20T17:27:46;39.92;;;19.27;;
69046;SDS011;57261;47.504;19.084;2022-11-20T17:30:47;37.90;;;19.33;;
69046;SDS011;57261;47.504;19.084;2022-11-20T17:33:48;35.92;;;18.45;;
69046;SDS011;57261;47.504;19.084;2022-11-20T17:36:48;35.17;;;18.67;;
69046;SDS011;57261;47.504;19.084;2022-11-20T17:39:51;36.72;;;19.08;;
69046;SDS011;57261;47.504;19.084;2022-11-20T17:42:52;36.15;;;18.17;;
69046;SDS011;57261;47.504;19.084;2022-11-20T17:45:52;35.20;;;18.17;;
69046;SDS011;57261;47.504;19.084;2022-11-20T17:48:53;39.03;;;18.93;;
69046;SDS011;57261;47.504;19.084;2022-11-20T17:51:54;39.28;;;20.35;;
69046;SDS011;57261;47.504;19.084;2022-11-20T17:54:54;36.00;;;18.53;;
69046;SDS011;57261;47.504;19.084;2022-11-20T17:57:56;35.85;;;18.83;;
69046;SDS011;57261;47.504;19.084;2022-11-20T18:01:05;38.03;;;18.65;;
69046;SDS011;57261;47.504;19.084;2022-11-20T18:04:06;35.95;;;18.58;;
69046;SDS011;57261;47.504;19.084;2022-11-20T18:07:06;38.43;;;19.63;;
69046;SDS011;57261;47.504;19.084;2022-11-20T18:10:07;33.37;;;18.03;;
69046;SDS011;57261;47.504;19.084;2022-11-20T18:13:08;37.25;;;19.08;;
69046;SDS011;57261;47.504;19.084;2022-11-20T18:16:08;36.27;;;18.67;;
69046;SDS011;57261;47.504;19.084;2022-11-20T18:19:09;36.90;;;19.17;;
69046;SDS011;57261;47.504;19.084;2022-11-20T18:22:12;37.65;;;18.73;;
69046;SDS011;57261;47.504;19.084;2022-11-20T18:25:14;36.50;;;19.50;;
69046;SDS011;57261;47.504;19.084;2022-11-20T18:28:14;36.72;;;19.25;;
69046;SDS011;57261;47.504;19.084;2022-11-20T18:31:14;38.97;;;18.10;;
69046;SDS011;57261;47.504;19.084;2022-11-20T18:34:15;37.40;;;19.03;;
69046;SDS011;57261;47.504;19.084;2022-11-20T18:37:16;37.83;;;18.65;;
69046;SDS011;57261;47.504;19.084;2022-11-20T18:40:17;38.75;;;19.15;;
69046;SDS011;57261;47.504;19.084;2022-11-20T18:43:17;35.90;;;18.60;;
69046;SDS011;57261;47.504;19.084;2022-11-20T18:46:36;36.63;;;19.17;;
69046;SDS011;57261;47.504;19.084;2022-11-20T18:49:37;37.07;;;18.40;;
69046;SDS011;57261;47.504;19.084;2022-11-20T18:52:41;34.92;;;18.45;;
69046;SDS011;57261;47.504;19.084;2022-11-20T18:55:43;38.03;;;19.15;;
69046;SDS011;57261;47.504;19.084;2022-11-20T18:58:43;35.37;;;18.63;;
69046;SDS011;57261;47.504;19.084;2022-11-20T19:01:44;37.43;;;18.60;;
69046;SDS011;57261;47.504;19.084;2022-11-20T19:04:45;40.55;;;19.73;;
69046;SDS011;57261;47.504;19.084;2022-11-20T19:07:46;38.20;;;18.77;;
69046;SDS011;57261;47.504;19.084;2022-11-20T19:10:47;36.83;;;20.13;;
69046;SDS011;57261;47.504;19.084;2022-11-20T19:13:47;36.90;;;18.83;;
69046;SDS011;57261;47.504;19.084;2022-11-20T19:16:48;40.78;;;20.92;;
69046;SDS011;57261;47.504;19.084;2022-11-20T19:19:48;36.93;;;19.87;;
69046;SDS011;57261;47.504;19.084;2022-11-20T19:22:49;35.53;;;18.23;;
69046;SDS011;57261;47.504;19.084;2022-11-20T19:25:50;38.70;;;20.00;;
69046;SDS011;57261;47.504;19.084;2022-11-20T19:28:50;40.00;;;21.40;;
69046;SDS011;57261;47.504;19.084;2022-11-20T19:31:51;39.85;;;20.40;;
69046;SDS011;57261;47.504;19.084;2022-11-20T19:34:52;47.10;;;24.87;;
69046;SDS011;57261;47.504;19.084;2022-11-20T19:37:52;48.75;;;25.98;;
69046;SDS011;57261;47.504;19.084;2022-11-20T19:40:53;43.55;;;23.05;;
69046;SDS011;57261;47.504;19.084;2022-11-20T19:43:55;46.43;;;22.67;;
69046;SDS011;57261;47.504;19.084;2022-11-20T19:47:00;43.63;;;22.05;;
69046;SDS011;57261;47.504;19.084;2022-11-20T19:50:03;39.53;;;21.10;;
69046;SDS011;57261;47.504;19.084;2022-11-20T19:53:04;42.97;;;22.40;;
69046;SDS011;57261;47.504;19.084;2022-11-20T19:56:06;42.20;;;22.00;;
69046;SDS011;57261;47.504;19.084;2022-11-20T19:59:07;43.13;;;21.17;;
69046;SDS011;57261;47.504;19.084;2022-11-20T20:02:09;45.83;;;23.03;;
69046;SDS011;57261;47.504;19.084;2022-11-20T20:05:10;43.65;;;22.13;;
69046;SDS011;57261;47.504;19.084;2022-11-20T20:08:11;39.43;;;21.63;;
69046;SDS011;57261;47.504;19.084;2022-11-20T20:11:12;43.35;;;23.17;;
69046;SDS011;57261;47.504;19.084;2022-11-20T20:14:14;43.40;;;22.60;;
69046;SDS011;57261;47.504;19.084;2022-11-20T20:17:15;40.47;;;21.70;;
69046;SDS011;57261;47.504;19.084;2022-11-20T20:20:16;42.93;;;22.23;;
69046;SDS011;57261;47.504;19.084;2022-11-20T20:23:16;39.53;;;20.83;;
69046;SDS011;57261;47.504;19.084;2022-11-20T20:26:17;39.67;;;20.70;;
69046;SDS011;57261;47.504;19.084;2022-11-20T20:29:17;40.83;;;21.57;;
69046;SDS011;57261;47.504;19.084;2022-11-20T20:32:21;40.05;;;21.88;;
69046;SDS011;57261;47.504;19.084;2022-11-20T20:35:22;40.63;;;21.50;;
69046;SDS011;57261;47.504;19.084;2022-11-20T20:38:23;43.38;;;21.75;;
69046;SDS011;57261;47.504;19.084;2022-11-20T20:41:23;40.43;;;21.67;;
69046;SDS011;57261;47.504;19.084;2022-11-20T20:44:24;40.87;;;21.93;;
69046;SDS011;57261;47.504;19.084;2022-11-20T20:47:43;40.80;;;21.65;;
69046;SDS011;57261;47.504;19.084;2022-11-20T20:50:53;40.70;;;22.20;;
69046;SDS011;57261;47.504;19.084;2022-11-20T20:53:55;38.75;;;21.30;;
69046;SDS011;57261;47.504;19.084;2022-11-20T20:56:55;42.13;;;21.87;;
69046;SDS011;57261;47.504;19.084;2022-11-20T20:59:55;44.57;;;22.33;;
69046;SDS011;57261;47.504;19.084;2022-11-20T21:02:56;41.87;;;22.07;;
69046;SDS011;57261;47.504;19.084;2022-11-20T21:05:56;42.38;;;21.95;;
69046;SDS011;57261;47.504;19.084;2022-11-20T21:08:57;42.15;;;23.13;;
69046;SDS011;57261;47.504;19.084;2022-11-20T21:11:59;42.23;;;22.03;;
69046;SDS011;57261;47.504;19.084;2022-11-20T21:14:59;40.78;;;21.35;;
69046;SDS011;57261;47.504;19.084;2022-11-20T21:17:59;40.73;;;21.70;;
69046;SDS011;57261;47.504;19.084;2022-11-20T21:21:02;44.03;;;24.17;;
69046;SDS011;57261;47.504;19.084;2022-11-20T21:24:26;45.35;;;23.20;;
69046;SDS011;57261;47.504;19.084;2022-11-20T21:27:27;42.17;;;22.17;;
69046;SDS011;57261;47.504;19.084;2022-11-20T21:30:27;42.58;;;22.25;;
69046;SDS011;57261;47.504;19.084;2022-11-20T21:33:33;45.47;;;22.35;;
69046;SDS011;57261;47.504;19.084;2022-11-20T21:36:38;42.58;;;23.27;;
69046;SDS011;57261;47.504;19.084;2022-11-20T21:39:38;48.13;;;24.23;;
69046;SDS011;57261;47.504;19.084;2022-11-20T21:42:49;41.90;;;22.40;;
69046;SDS011;57261;47.504;19.084;2022-11-20T21:45:49;42.07;;;23.03;;
69046;SDS011;57261;47.504;19.084;2022-11-20T21:48:55;47.63;;;24.67;;
69046;SDS011;57261;47.504;19.084;2022-11-20T21:51:56;45.83;;;23.23;;
69046;SDS011;57261;47.504;19.084;2022-11-20T21:54:57;43.97;;;23.90;;
69046;SDS011;57261;47.504;19.084;2022-11-20T21:57:58;43.97;;;23.57;;
69046;SDS011;57261;47.504;19.084;2022-11-20T22:00:59;43.40;;;22.23;;
69046;SDS011;57261;47.504;19.084;2022-11-20T22:04:06;45.60;;;22.95;;
69046;SDS011;57261;47.504;19.084;2022-11-20T22:07:08;43.87;;;23.40;;
69046;SDS011;57261;47.504;19.084;2022-11-20T22:10:08;42.33;;;21.55;;
69046;SDS011;57261;47.504;19.084;2022-11-20T22:13:09;43.37;;;21.50;;
69046;SDS011;57261;47.504;19.084;2022-11-20T22:16:28;40.75;;;22.00;;
69046;SDS011;57261;47.504;19.084;2022-11-20T22:19:29;42.05;;;22.75;;
69046;SDS011;57261;47.504;19.084;2022-11-20T22:22:29;42.70;;;22.93;;
69046;SDS011;57261;47.504;19.084;2022-11-20T22:25:31;41.93;;;22.77;;
69046;SDS011;57261;47.504;19.084;2022-11-20T22:28:32;40.55;;;22.40;;
69046;SDS011;57261;47.504;19.084;2022-11-20T22:31:33;44.30;;;23.77;;
69046;SDS011;57261;47.504;19.084;2022-11-20T22:34:33;43.27;;;23.20;;
69046;SDS011;57261;47.504;19.084;2022-11-20T22:37:34;44.72;;;23.85;;
69046;SDS011;57261;47.504;19.084;2022-11-20T22:40:34;44.77;;;23.40;;
69046;SDS011;57261;47.504;19.084;2022-11-20T22:43:34;41.37;;;22.33;;
69046;SDS011;57261;47.504;19.084;2022-11-20T22:46:35;44.37;;;23.27;;
69046;SDS011;57261;47.504;19.084;2022-11-20T22:49:37;44.42;;;23.63;;
69046;SDS011;57261;47.504;19.084;2022-11-20T22:52:37;45.17;;;22.50;;
69046;SDS011;57261;47.504;19.084;2022-11-20T22:55:37;48.40;;;24.83;;
69046;SDS011;57261;47.504;19.084;2022-11-20T22:58:39;45.97;;;23.97;;
69046;SDS011;57261;47.504;19.084;2022-11-20T23:01:40;44.05;;;23.42;;
69046;SDS011;57261;47.504;19.084;2022-11-20T23:04:41;47.90;;;24.33;;
69046;SDS011;57261;47.504;19.084;2022-11-20T23:07:41;45.73;;;24.60;;
69046;SDS011;57261;47.504;19.084;2022-11-20T23:10:42;49.67;;;25.23;;
69046;SDS011;57261;47.504;19.084;2022-11-20T23:13:43;49.03;;;24.93;;
69046;SDS011;57261;47.504;19.084;2022-11-20T23:16:44;49.83;;;26.63;;
69046;SDS011;57261;47.504;19.084;2022-11-20T23:19:44;51.87;;;27.70;;
69046;SDS011;57261;47.504;19.084;2022-11-20T23:22:45;51.47;;;27.97;;
69046;SDS011;57261;47.504;19.084;2022-11-20T23:25:45;48.33;;;26.07;;
69046;SDS011;57261;47.504;19.084;2022-11-20T23:28:45;49.70;;;26.53;;
69046;SDS011;57261;47.504;19.084;2022-11-20T23:31:46;52.53;;;27.85;;
69046;SDS011;57261;47.504;19.084;2022-11-20T23:34:46;47.40;;;25.77;;
69046;SDS011;57261;47.504;19.084;2022-11-20T23:37:47;49.53;;;27.27;;
69046;SDS011;57261;47.504;19.084;2022-11-20T23:40:48;49.27;;;27.13;;
69046;SDS011;57261;47.504;19.084;2022-11-20T23:43:49;51.85;;;27.60;;
69046;SDS011;57261;47.504;19.084;2022-11-20T23:46:49;56.03;;;29.20;;
69046;SDS011;57261;47.504;19.084;2022-11-20T23:49:50;50.27;;;27.50;;
69046;SDS011;57261;47.504;19.084;2022-11-20T23:52:50;55.63;;;29.10;;
69046;SDS011;57261;47.504;19.084;2022-11-20T23:55:51;50.23;;;27.03;;
69046;SDS011;57261;47.504;19.084;2022-11-20T23:58:53;50.40;;;27.42;;
